EST,Max TemperatureF,Mean TemperatureF,Min TemperatureF,Max Dew PointF,MeanDew PointF,Min DewpointF,Max Humidity, Mean Humidity, Min Humidity, Max Sea Level PressureIn, Mean Sea Level PressureIn, Min Sea Level PressureIn, Max VisibilityMiles, Mean VisibilityMiles, Min VisibilityMiles, Max Wind SpeedMPH, Mean Wind SpeedMPH, Max Gust SpeedMPH,PrecipitationIn, CloudCover, Events, WindDirDegrees
2012-12-1,40,32,24,34,25,17,82,66,50,30.56,30.48,30.41,10,8,2,17,8,24,0.01,8,Snow,107
2012-12-2,53,47,40,45,40,34,86,73,59,30.39,30.18,30.01,10,9,4,17,5,24,0.21,6,Rain,227
2012-12-3,50,41,32,46,41,32,92,82,71,30.27,30.17,30.02,10,10,8,14,5,18,T,7,,244
2012-12-4,61,46,31,50,45,30,92,82,71,30.24,30.11,29.85,10,9,4,21,4,32,0.01,5,Rain,215
2012-12-5,60,43,26,52,34,13,93,70,47,30.23,30.00,29.85,10,9,4,23,10,36,0.31,7,Rain-Snow,285
2012-12-6,34,27,20,19,16,13,84,66,47,30.38,30.30,30.22,10,10,10,10,4,15,0.00,2,,290
2012-12-7,40,30,20,36,30,15,100,74,47,30.22,30.07,30.01,10,5,0,3,2,3,0.13,6,Fog-Rain,121
2012-12-8,48,41,34,43,37,33,100,91,82,30.01,29.91,29.82,10,4,0,10,2,15,0.15,8,Fog-Rain,338
2012-12-9,46,39,32,40,32,24,86,68,49,30.27,30.16,30.02,10,10,4,17,4,24,0.11,5,Rain,254
2012-12-10,56,48,40,50,44,34,96,87,77,29.98,29.65,29.49,10,8,2,23,5,33,0.39,8,Rain,252
2012-12-11,41,34,27,37,27,18,93,74,54,30.19,29.88,29.64,10,10,10,8,7,10,0.03,7,Rain,258
2012-12-12,39,30,20,24,22,20,92,73,54,30.42,30.33,30.20,10,10,9,9,1,15,0.00,3,,214
2012-12-13,40,30,19,27,21,17,92,70,48,30.47,30.40,30.28,10,9,6,9,1,14,0.00,1,,256
2012-12-14,42,30,18,29,23,16,91,66,41,30.25,30.19,30.13,10,8,5,15,4,21,0.00,3,,271
2012-12-15,37,31,24,27,21,12,85,64,43,30.32,30.27,30.20,10,10,10,9,2,12,0.00,2,,310
2012-12-16,36,34,31,28,24,15,75,58,41,30.22,30.10,29.95,10,9,2,16,8,23,0.01,8,Rain-Snow,117
2012-12-17,44,40,35,35,31,28,76,73,70,29.96,29.88,29.70,10,10,4,22,10,33,0.19,8,Rain,102
2012-12-18,45,41,37,41,38,32,96,83,70,29.67,29.48,29.42,10,6,1,26,7,40,0.30,8,Rain,127
2012-12-19,41,38,35,32,29,24,89,74,59,30.10,29.80,29.55,10,10,10,14,6,22,0.00,8,,294
2012-12-20,41,34,26,30,26,22,85,70,55,30.22,30.08,29.87,10,9,4,20,3,29,0.02,3,Snow,161
2012-12-21,50,43,35,43,33,26,85,78,70,29.85,29.29,28.95,10,8,2,14,14,21,0.31,8,Rain-Snow,165
2012-12-22,36,30,24,30,20,14,81,69,57,29.74,29.42,29.18,10,4,0,21,11,32,0.06,8,Fog-Snow,278
2012-12-23,34,27,19,25,19,14,78,65,51,29.87,29.81,29.75,10,8,2,15,4,21,T,6,Snow,240
2012-12-24,33,29,24,23,17,14,81,65,49,30.09,30.01,29.88,10,10,10,16,5,25,0.00,4,,270
2012-12-25,29,20,11,23,19,10,92,80,68,30.31,30.08,29.94,10,8,1,9,2,15,0.03,6,Snow,321
2012-12-26,25,16,6,27,15,4,92,77,62,30.36,30.11,29.78,10,7,0,7,1,37,0.00,3,Snow,108
2012-12-27,35,29,23,29,24,19,96,80,64,29.79,29.57,29.44,10,3,0,26,8,46,0.34,8,Fog-Rain-Snow,330
2012-12-28,29,23,17,22,19,14,92,81,69,30.06,29.96,29.76,10,10,7,21,5,37,0.00,7,,287
2012-12-29,30,27,23,27,23,19,96,84,72,30.04,29.68,29.52,10,4,0,9,2,14,0.15,8,Fog-Snow,293
2012-12-30,25,18,10,19,14,5,88,69,50,30.13,29.75,29.54,10,5,1,18,7,26,0.02,6,Snow,291
2012-12-31,33,21,8,22,16,6,96,78,59,30.12,29.97,29.75,10,8,2,10,1,15,0.00,7,,222